createdAt,value
2019-02-27T00:00:22.708Z,24.05
2019-02-27T00:02:56.148Z,27.32
2019-02-27T00:05:26.739Z,23.30
2019-02-27T00:07:57.174Z,21.93
2019-02-27T00:10:28.233Z,28.73
2019-02-27T00:12:58.578Z,23.98
2019-02-27T00:15:29.205Z,25.90
2019-02-27T00:17:59.766Z,27.60
2019-02-27T00:20:31.357Z,24.12
2019-02-27T00:23:01.696Z,30.77
2019-02-27T00:25:35.930Z,18.15
2019-02-27T00:28:05.322Z,25.12
2019-02-27T00:30:38.154Z,22.40
2019-02-27T00:33:08.415Z,23.42
2019-02-27T00:35:39.566Z,23.10
2019-02-27T00:38:09.455Z,20.12
2019-02-27T00:40:41.015Z,24.65
2019-02-27T00:43:11.344Z,22.15
2019-02-27T00:45:41.861Z,21.30
2019-02-27T00:48:12.286Z,23.18
2019-02-27T00:50:43.244Z,23.42
2019-02-27T00:53:12.999Z,24.18
2019-02-27T00:55:43.446Z,23.67
2019-02-27T00:58:13.774Z,26.55
2019-02-27T01:00:45.257Z,22.45
2019-02-27T01:03:15.691Z,26.70
2019-02-27T01:05:45.724Z,23.55
2019-02-27T01:08:16.098Z,23.77
2019-02-27T01:10:46.559Z,26.07
2019-02-27T01:13:16.915Z,25.02
2019-02-27T01:15:47.426Z,28.05
2019-02-27T01:18:17.316Z,23.25
2019-02-27T01:20:47.783Z,23.62
2019-02-27T01:23:18.114Z,23.65
2019-02-27T01:25:48.580Z,24.57
2019-02-27T01:28:19.003Z,20.75
2019-02-27T01:30:48.921Z,17.20
2019-02-27T01:33:18.798Z,17.30
2019-02-27T01:35:51.319Z,18.42
2019-02-27T01:38:20.906Z,19.80
2019-02-27T01:40:51.542Z,16.85
2019-02-27T01:43:22.540Z,17.27
2019-02-27T01:45:54.342Z,20.65
2019-02-27T01:48:24.997Z,17.02
2019-02-27T01:50:55.774Z,18.73
2019-02-27T01:53:26.228Z,17.27
2019-02-27T01:55:57.078Z,17.27
2019-02-27T01:58:27.423Z,13.53
2019-02-27T02:00:57.280Z,15.60
2019-02-27T02:03:27.179Z,13.53
2019-02-27T02:05:59.302Z,15.73
2019-02-27T02:08:29.121Z,17.23
2019-02-27T02:11:01.403Z,21.20
2019-02-27T02:13:37.147Z,13.60
2019-02-27T02:16:22.420Z,18.87
2019-02-27T02:19:18.973Z,18.35
2019-02-27T02:21:54.739Z,16.02
2019-02-27T02:24:47.095Z,15.08
2019-02-27T02:27:39.129Z,15.45
2019-02-27T02:30:38.534Z,18.10
2019-02-27T02:33:20.610Z,17.60
2019-02-27T02:36:10.005Z,16.83
2019-02-27T02:38:56.082Z,14.33
2019-02-27T02:41:48.822Z,12.75
2019-02-27T02:44:33.922Z,14.25
2019-02-27T02:47:12.587Z,20.43
2019-02-27T02:50:05.785Z,16.50
2019-02-27T02:52:55.416Z,17.27
2019-02-27T02:55:32.342Z,15.23
2019-02-27T02:58:15.014Z,12.73
2019-02-27T03:00:56.571Z,16.27
2019-02-27T03:03:36.191Z,14.55
2019-02-27T03:06:34.650Z,15.48
2019-02-27T03:09:16.263Z,16.40
2019-02-27T03:12:10.935Z,16.97
2019-02-27T03:14:53.138Z,15.60
2019-02-27T03:17:55.342Z,13.90
2019-02-27T03:20:36.168Z,14.97
2019-02-27T03:23:24.711Z,13.88
2019-02-27T03:26:09.555Z,13.53
2019-02-27T03:28:57.509Z,16.93
2019-02-27T03:31:42.307Z,16.57
2019-02-27T03:34:48.318Z,13.28
2019-02-27T03:37:14.185Z,15.70
2019-02-27T03:40:14.559Z,15.72
2019-02-27T03:42:56.204Z,15.13
2019-02-27T03:45:41.711Z,15.65
2019-02-27T03:48:17.975Z,14.00
2019-02-27T03:51:03.208Z,14.63
2019-02-27T03:53:59.897Z,14.05
2019-02-27T03:57:01.881Z,15.30
2019-02-27T03:59:46.445Z,13.77
2019-02-27T04:02:19.431Z,14.87
2019-02-27T04:05:19.434Z,11.83
2019-02-27T04:08:09.064Z,12.90
2019-02-27T04:10:39.916Z,14.53
2019-02-27T04:13:10.462Z,15.98
2019-02-27T04:15:41.047Z,13.60
2019-02-27T04:18:10.474Z,11.48
2019-02-27T04:20:41.452Z,13.70
2019-02-27T04:23:12.542Z,14.23
2019-02-27T04:25:43.185Z,16.57
2019-02-27T04:28:13.145Z,13.68
2019-02-27T04:30:44.049Z,15.77
2019-02-27T04:33:14.511Z,15.03
2019-02-27T04:35:44.382Z,13.85
2019-02-27T04:38:15.262Z,12.15
2019-02-27T04:40:45.122Z,16.02
2019-02-27T04:43:15.020Z,15.53
2019-02-27T04:45:46.893Z,13.15
2019-02-27T04:48:16.906Z,12.55
2019-02-27T04:50:46.850Z,11.27
2019-02-27T04:53:16.691Z,14.87
2019-02-27T04:55:47.987Z,13.57
2019-02-27T04:58:18.532Z,11.85
2019-02-27T05:00:49.408Z,16.85
2019-02-27T05:03:19.774Z,12.20
2019-02-27T05:05:49.675Z,15.13
2019-02-27T05:08:19.578Z,14.40
2019-02-27T05:10:49.462Z,17.10
2019-02-27T05:13:20.913Z,14.77
2019-02-27T05:15:50.774Z,13.23
2019-02-27T05:18:21.152Z,12.13
2019-02-27T05:20:51.096Z,11.97
2019-02-27T05:23:20.871Z,13.20
2019-02-27T05:25:50.817Z,10.00
2019-02-27T05:28:20.734Z,12.50
2019-02-27T05:30:51.091Z,14.00
2019-02-27T05:33:20.949Z,12.43
2019-02-27T05:35:50.735Z,17.07
2019-02-27T05:38:21.168Z,23.02
2019-02-27T05:40:50.962Z,10.87
2019-02-27T05:43:20.879Z,12.10
2019-02-27T05:45:51.323Z,11.57
2019-02-27T05:48:21.653Z,14.18
2019-02-27T05:50:51.438Z,10.27
2019-02-27T05:53:22.371Z,13.45
2019-02-27T05:55:52.737Z,14.95
2019-02-27T05:58:23.119Z,11.93
2019-02-27T06:00:54.020Z,13.58
2019-02-27T06:03:23.861Z,10.47
2019-02-27T06:05:53.649Z,11.20
2019-02-27T06:08:23.538Z,12.67
2019-02-27T06:10:56.002Z,11.95
2019-02-27T06:13:25.468Z,11.67
2019-02-27T06:15:55.271Z,15.53
2019-02-27T06:18:25.736Z,18.92
2019-02-27T06:20:56.116Z,17.17
2019-02-27T06:23:26.148Z,10.05
2019-02-27T06:25:59.010Z,11.90
2019-02-27T06:28:28.103Z,16.70
2019-02-27T06:30:58.547Z,10.80
2019-02-27T06:33:29.104Z,13.45
2019-02-27T06:35:59.464Z,11.50
2019-02-27T06:38:29.372Z,9.85
2019-02-27T06:40:59.811Z,9.68
2019-02-27T06:43:30.470Z,8.90
2019-02-27T06:46:00.916Z,10.63
2019-02-27T06:48:31.510Z,9.70
2019-02-27T06:51:02.926Z,7.58
2019-02-27T06:53:33.454Z,11.80
2019-02-27T06:56:04.113Z,10.40
2019-02-27T06:58:35.853Z,11.15
2019-02-27T07:01:09.476Z,10.32
2019-02-27T07:03:38.327Z,11.45
2019-02-27T07:06:11.518Z,11.30
2019-02-27T07:08:43.145Z,22.25
2019-02-27T07:11:13.498Z,17.15
2019-02-27T07:13:44.080Z,55.33
2019-02-27T07:16:14.484Z,32.23
2019-02-27T07:18:46.017Z,25.02
2019-02-27T07:21:16.346Z,18.35
2019-02-27T07:23:46.894Z,14.78
2019-02-27T07:26:17.236Z,20.55
2019-02-27T07:28:48.730Z,18.90
2019-02-27T07:31:19.060Z,22.27
2019-02-27T07:33:49.534Z,17.35
2019-02-27T07:36:19.992Z,17.05
2019-02-27T07:38:51.523Z,15.50
2019-02-27T07:41:21.889Z,12.78
2019-02-27T07:43:52.359Z,15.90
2019-02-27T07:46:23.042Z,13.88
2019-02-27T07:48:56.697Z,16.27
2019-02-27T07:51:26.653Z,19.77
2019-02-27T07:53:58.160Z,16.45
2019-02-27T07:56:28.523Z,12.93
2019-02-27T07:59:00.092Z,13.30
2019-02-27T08:01:30.640Z,19.60
2019-02-27T08:04:01.167Z,21.00
2019-02-27T08:06:31.523Z,32.58
2019-02-27T08:09:03.614Z,53.98
2019-02-27T08:11:35.526Z,23.80
2019-02-27T08:14:06.027Z,21.35
2019-02-27T08:16:37.046Z,15.97
2019-02-27T08:19:08.930Z,15.08
2019-02-27T08:21:40.381Z,20.00
2019-02-27T08:24:11.013Z,14.73
2019-02-27T08:26:41.068Z,16.47
2019-02-27T08:29:12.665Z,16.70
2019-02-27T08:31:43.046Z,14.93
2019-02-27T08:34:13.249Z,19.57
2019-02-27T08:36:43.291Z,15.37
2019-02-27T08:39:14.485Z,14.83
2019-02-27T08:41:44.515Z,11.07
2019-02-27T08:44:14.709Z,15.80
2019-02-27T08:46:44.748Z,11.90
2019-02-27T08:49:16.979Z,9.30
2019-02-27T08:51:47.027Z,13.63
2019-02-27T08:54:17.255Z,13.17
2019-02-27T08:56:47.903Z,56.37
2019-02-27T08:59:18.195Z,16.70
2019-02-27T09:01:48.331Z,17.30
2019-02-27T09:04:18.515Z,13.73
2019-02-27T09:06:48.555Z,12.60
2019-02-27T09:09:19.782Z,15.07
2019-02-27T09:11:49.805Z,8.57
2019-02-27T09:14:20.087Z,13.97
2019-02-27T09:16:50.235Z,11.87
2019-02-27T09:19:21.596Z,15.93
2019-02-27T09:21:51.736Z,14.57
2019-02-27T09:24:22.060Z,13.00
2019-02-27T09:26:52.112Z,13.87
2019-02-27T09:29:22.389Z,12.40
2019-02-27T09:31:52.439Z,13.70
2019-02-27T09:34:26.694Z,12.17
2019-02-27T09:36:54.489Z,12.23
2019-02-27T09:39:30.687Z,12.43
2019-02-27T09:41:57.492Z,20.47
2019-02-27T09:44:27.922Z,14.33
2019-02-27T09:46:58.075Z,14.17
2019-02-27T09:49:29.274Z,21.07
2019-02-27T09:51:59.337Z,16.20
2019-02-27T09:54:29.657Z,16.90
2019-02-27T09:57:02.124Z,16.57
2019-02-27T09:59:32.685Z,19.77
2019-02-27T10:02:02.739Z,15.27
2019-02-27T10:04:32.990Z,20.83
2019-02-27T10:07:03.033Z,22.00
2019-02-27T10:09:34.880Z,17.63
2019-02-27T10:12:05.828Z,20.50
2019-02-27T10:14:36.096Z,23.97
2019-02-27T10:17:06.746Z,30.00
2019-02-27T10:19:39.542Z,22.02
2019-02-27T10:22:10.199Z,22.48
2019-02-27T10:24:40.731Z,30.32
2019-02-27T10:27:11.204Z,40.90
2019-02-27T10:29:47.517Z,37.08
2019-02-27T10:32:15.891Z,34.00
2019-02-27T10:34:46.490Z,29.07
2019-02-27T10:37:18.914Z,34.63
2019-02-27T10:39:50.212Z,32.48
2019-02-27T10:42:20.830Z,32.98
2019-02-27T10:44:52.493Z,35.00
2019-02-27T10:47:23.031Z,34.43
2019-02-27T10:49:54.566Z,37.73
2019-02-27T10:52:25.094Z,46.65
2019-02-27T10:54:56.746Z,49.85
2019-02-27T10:57:31.467Z,53.35
2019-02-27T11:00:00.287Z,49.65
2019-02-27T11:02:32.328Z,52.10
2019-02-27T11:05:02.926Z,49.77
2019-02-27T11:07:34.484Z,57.73
2019-02-27T11:10:07.738Z,57.85
2019-02-27T11:12:38.485Z,56.25
2019-02-27T11:15:17.264Z,57.50
2019-02-27T11:17:47.718Z,61.13
2019-02-27T11:20:20.824Z,61.50
2019-02-27T11:22:50.384Z,60.08
2019-02-27T11:25:31.358Z,55.23
2019-02-27T11:28:01.804Z,58.38
2019-02-27T11:30:43.066Z,54.18
2019-02-27T11:33:24.817Z,71.97
2019-02-27T11:35:45.975Z,67.60
2019-02-27T11:38:16.458Z,69.47
2019-02-27T11:40:47.046Z,70.05
2019-02-27T11:43:17.464Z,67.90
2019-02-27T11:45:48.057Z,69.42
2019-02-27T11:48:20.359Z,73.95
2019-02-27T11:50:50.503Z,70.12
2019-02-27T11:53:20.906Z,75.28
2019-02-27T11:55:51.406Z,73.92
2019-02-27T11:58:21.765Z,69.92
2019-02-27T12:00:52.234Z,79.10
2019-02-27T12:03:22.586Z,75.72
2019-02-27T12:05:53.388Z,71.95
2019-02-27T12:08:25.796Z,65.12
2019-02-27T12:10:55.949Z,62.38
2019-02-27T12:13:32.354Z,71.20
2019-02-27T12:16:03.172Z,70.67
2019-02-27T12:18:34.534Z,66.47
2019-02-27T12:21:06.637Z,72.80
2019-02-27T12:23:37.066Z,70.65
2019-02-27T12:26:07.690Z,73.97
2019-02-27T12:28:38.036Z,68.70
2019-02-27T12:31:11.080Z,66.60
2019-02-27T12:33:40.493Z,60.33
2019-02-27T12:36:10.976Z,70.20
2019-02-27T12:38:42.644Z,75.08
2019-02-27T12:41:14.212Z,63.40
2019-02-27T12:43:44.567Z,73.30
2019-02-27T12:46:15.063Z,388.55
2019-02-27T12:48:47.049Z,88.52
2019-02-27T12:51:17.862Z,68.70
2019-02-27T12:53:48.222Z,70.97
2019-02-27T12:56:18.752Z,64.37
2019-02-27T12:58:49.096Z,59.88
2019-02-27T13:01:20.687Z,64.53
2019-02-27T13:03:51.060Z,62.85
2019-02-27T13:06:21.542Z,56.02
2019-02-27T13:08:53.476Z,63.08
2019-02-27T13:11:24.194Z,65.42
2019-02-27T13:13:57.173Z,61.50
2019-02-27T13:16:26.759Z,62.58
2019-02-27T13:18:57.302Z,61.92
2019-02-27T13:21:27.797Z,67.67
2019-02-27T13:23:59.179Z,63.58
2019-02-27T13:26:31.537Z,68.42
2019-02-27T13:29:02.967Z,64.67
2019-02-27T13:31:33.555Z,71.53
2019-02-27T13:34:04.032Z,68.97
2019-02-27T13:36:34.767Z,69.30
2019-02-27T13:39:07.024Z,62.70
2019-02-27T13:41:39.184Z,61.08
2019-02-27T13:44:09.624Z,66.60
2019-02-27T13:46:41.102Z,65.65
2019-02-27T13:49:14.021Z,57.08
2019-02-27T13:51:43.722Z,63.35
2019-02-27T13:54:14.204Z,57.10
2019-02-27T13:56:44.822Z,59.25
2019-02-27T13:59:16.272Z,60.58
2019-02-27T14:01:46.760Z,58.50
2019-02-27T14:04:21.733Z,65.52
2019-02-27T14:06:49.334Z,63.35
2019-02-27T14:09:19.720Z,64.67
2019-02-27T14:11:50.366Z,61.92
2019-02-27T14:14:20.901Z,68.57
2019-02-27T14:16:51.384Z,59.27
2019-02-27T14:19:23.894Z,56.00
2019-02-27T14:21:55.565Z,61.35
2019-02-27T14:24:26.023Z,54.08
2019-02-27T14:26:56.651Z,56.45
2019-02-27T14:29:29.839Z,59.08
2019-02-27T14:32:00.239Z,54.58
2019-02-27T14:34:30.597Z,53.73
2019-02-27T14:37:01.161Z,54.35
2019-02-27T14:39:32.609Z,59.23
2019-02-27T14:42:03.079Z,64.80
2019-02-27T14:44:33.539Z,52.43
2019-02-27T14:47:04.086Z,60.33
2019-02-27T14:49:35.551Z,53.70
2019-02-27T14:52:06.010Z,54.65
2019-02-27T14:54:36.363Z,59.20
2019-02-27T14:57:06.889Z,55.10
2019-02-27T14:59:37.254Z,64.03
2019-02-27T15:02:07.728Z,58.85
2019-02-27T15:04:38.183Z,62.60
2019-02-27T15:07:08.736Z,57.95
2019-02-27T15:09:47.599Z,63.48
2019-02-27T15:12:12.324Z,56.63
2019-02-27T15:14:42.800Z,59.25
2019-02-27T15:17:13.387Z,56.60
2019-02-27T15:19:44.963Z,53.52
2019-02-27T15:22:20.086Z,53.40
2019-02-27T15:24:47.562Z,54.40
2019-02-27T15:27:19.590Z,52.78
2019-02-27T15:29:50.157Z,59.73
2019-02-27T15:32:20.639Z,49.75
2019-02-27T15:34:51.123Z,49.00
2019-02-27T15:37:21.579Z,52.70
2019-02-27T15:39:54.993Z,53.33
2019-02-27T15:42:25.279Z,54.33
2019-02-27T15:44:55.747Z,61.75
2019-02-27T15:47:30.022Z,59.48
2019-02-27T15:49:59.627Z,60.48
2019-02-27T15:52:31.286Z,53.00
2019-02-27T15:55:01.736Z,60.55
2019-02-27T15:57:34.174Z,58.50
2019-02-27T16:00:18.482Z,63.78
2019-02-27T16:02:48.434Z,57.70
2019-02-27T16:05:18.985Z,60.52
2019-02-27T16:07:49.836Z,60.12
2019-02-27T16:10:29.568Z,63.13
2019-02-27T16:13:01.197Z,63.05
2019-02-27T16:15:31.904Z,64.77
2019-02-27T16:18:04.646Z,63.02
2019-02-27T16:20:34.482Z,59.33
2019-02-27T16:23:05.343Z,61.42
2019-02-27T16:25:35.828Z,51.73
2019-02-27T16:28:11.466Z,69.35
2019-02-27T16:30:38.677Z,58.75
2019-02-27T16:33:09.489Z,60.12
2019-02-27T16:35:42.063Z,63.08
2019-02-27T16:38:13.290Z,65.32
2019-02-27T16:40:43.830Z,61.13
2019-02-27T16:43:14.491Z,70.00
2019-02-27T16:45:45.111Z,62.98
2019-02-27T16:48:15.606Z,59.55
2019-02-27T16:50:46.170Z,61.37
2019-02-27T16:53:19.278Z,57.00
2019-02-27T16:55:48.673Z,62.03
2019-02-27T16:58:19.395Z,58.80
2019-02-27T17:00:54.200Z,53.33
2019-02-27T17:03:21.936Z,58.75
2019-02-27T17:05:52.284Z,64.72
2019-02-27T17:08:22.879Z,59.13
2019-02-27T17:10:53.235Z,57.15
2019-02-27T17:13:23.753Z,58.87
2019-02-27T17:15:54.300Z,62.67
2019-02-27T17:18:28.437Z,58.15
2019-02-27T17:20:57.144Z,57.20
2019-02-27T17:23:27.715Z,56.48
2019-02-27T17:26:03.461Z,58.48
2019-02-27T17:28:30.349Z,60.28
2019-02-27T17:31:01.947Z,56.98
2019-02-27T17:33:35.137Z,54.40
2019-02-27T17:36:05.917Z,53.55
2019-02-27T17:38:36.465Z,56.98
2019-02-27T17:41:08.745Z,57.62
2019-02-27T17:43:39.181Z,58.42
2019-02-27T17:46:09.732Z,60.00
2019-02-27T17:48:40.235Z,67.03
2019-02-27T17:51:10.710Z,59.53
2019-02-27T17:53:41.208Z,59.15
2019-02-27T17:56:15.223Z,60.10
2019-02-27T17:58:45.674Z,62.15
2019-02-27T18:01:17.606Z,64.55
2019-02-27T18:03:48.079Z,57.73
2019-02-27T18:06:18.422Z,60.52
2019-02-27T18:08:52.354Z,52.88
2019-02-27T18:11:21.867Z,55.90
2019-02-27T18:13:52.574Z,60.70
2019-02-27T18:16:24.581Z,55.70
2019-02-27T18:18:56.180Z,65.90
2019-02-27T18:21:27.782Z,62.67
2019-02-27T18:23:58.883Z,56.55
2019-02-27T18:26:30.024Z,60.85
2019-02-27T18:29:04.330Z,54.03
2019-02-27T18:31:33.765Z,56.88
2019-02-27T18:34:04.353Z,65.40
2019-02-27T18:36:42.597Z,64.40
2019-02-27T18:39:09.236Z,83.70
2019-02-27T18:41:39.897Z,79.05
2019-02-27T18:44:10.453Z,69.90
2019-02-27T18:46:41.002Z,70.37
2019-02-27T18:49:11.536Z,72.97
2019-02-27T18:51:42.103Z,75.75
2019-02-27T18:54:13.568Z,76.30
2019-02-27T18:56:44.291Z,73.33
2019-02-27T18:59:14.960Z,77.90
2019-02-27T19:01:46.077Z,79.00
2019-02-27T19:04:16.639Z,79.30
2019-02-27T19:06:50.279Z,74.45
2019-02-27T19:09:22.243Z,69.05
2019-02-27T19:11:52.695Z,77.95
2019-02-27T19:14:23.382Z,80.17
2019-02-27T19:16:55.026Z,71.12
2019-02-27T19:19:26.116Z,71.50
2019-02-27T19:21:56.644Z,72.87
2019-02-27T19:24:27.701Z,75.47
2019-02-27T19:26:59.130Z,78.37
2019-02-27T19:29:32.068Z,83.58
2019-02-27T19:32:03.297Z,73.25
2019-02-27T19:34:33.754Z,79.70
2019-02-27T19:37:05.224Z,82.15
2019-02-27T19:39:36.760Z,106.00
2019-02-27T19:42:07.141Z,122.58
2019-02-27T19:44:37.968Z,104.00
2019-02-27T19:47:08.767Z,261.48
2019-02-27T19:49:40.542Z,181.50
2019-02-27T19:52:11.113Z,126.35
2019-02-27T19:54:41.913Z,115.00
2019-02-27T19:57:12.680Z,80.60
2019-02-27T19:59:43.793Z,73.65
2019-02-27T20:02:16.296Z,76.77
2019-02-27T20:04:51.445Z,80.57
2019-02-27T20:07:32.872Z,79.97
2019-02-27T20:10:07.968Z,77.32
2019-02-27T20:12:51.938Z,76.12
2019-02-27T20:15:23.367Z,73.97
2019-02-27T20:17:58.239Z,88.25
2019-02-27T20:20:40.089Z,81.37
2019-02-27T20:23:14.413Z,77.45
2019-02-27T20:25:47.086Z,75.87
2019-02-27T20:28:17.947Z,74.27
2019-02-27T20:30:49.140Z,73.40
2019-02-27T20:33:22.329Z,73.05
2019-02-27T20:35:55.635Z,74.58
2019-02-27T20:38:25.002Z,83.67
2019-02-27T20:40:56.043Z,79.37
2019-02-27T20:43:29.425Z,73.05
2019-02-27T20:45:59.370Z,70.30
2019-02-27T20:48:35.737Z,71.30
2019-02-27T20:51:09.800Z,159.48
2019-02-27T20:53:40.100Z,94.87
2019-02-27T20:56:11.968Z,77.25
2019-02-27T20:58:44.063Z,76.15
2019-02-27T21:01:16.403Z,64.35
2019-02-27T21:03:47.965Z,79.03
2019-02-27T21:06:19.796Z,69.15
2019-02-27T21:08:50.905Z,69.27
2019-02-27T21:11:23.230Z,64.15
2019-02-27T21:13:54.686Z,90.32
2019-02-27T21:16:26.239Z,68.22
2019-02-27T21:18:56.910Z,70.87
2019-02-27T21:21:28.801Z,66.07
2019-02-27T21:24:05.496Z,60.60
2019-02-27T21:26:32.972Z,57.00
2019-02-27T21:29:08.202Z,62.17
2019-02-27T21:31:37.727Z,57.00
2019-02-27T21:34:09.389Z,57.85
2019-02-27T21:36:40.833Z,56.50
2019-02-27T21:39:11.857Z,58.90
2019-02-27T21:41:45.478Z,67.95
2019-02-27T21:44:25.054Z,113.70
2019-02-27T21:46:47.560Z,132.27
2019-02-27T21:49:19.904Z,101.90
2019-02-27T21:51:51.074Z,65.75
2019-02-27T21:54:21.911Z,65.30
2019-02-27T21:56:55.152Z,55.25
2019-02-27T21:59:27.292Z,56.90
2019-02-27T22:01:58.610Z,62.90
2019-02-27T22:04:29.577Z,54.15
2019-02-27T22:07:00.217Z,58.58
2019-02-27T22:09:30.943Z,106.17
2019-02-27T22:12:02.087Z,66.50
2019-02-27T22:14:32.920Z,60.17
2019-02-27T22:17:05.042Z,57.43
2019-02-27T22:19:36.111Z,60.98
2019-02-27T22:22:08.040Z,60.67
2019-02-27T22:24:39.727Z,53.38
2019-02-27T22:27:12.810Z,54.55
2019-02-27T22:29:44.127Z,61.83
2019-02-27T22:32:15.384Z,62.27
2019-02-27T22:34:46.841Z,59.00
2019-02-27T22:37:18.409Z,58.30
2019-02-27T22:39:49.402Z,67.78
2019-02-27T22:42:19.848Z,59.75
2019-02-27T22:44:50.206Z,63.08
2019-02-27T22:47:23.095Z,64.03
2019-02-27T22:49:53.949Z,55.90
2019-02-27T22:52:24.411Z,59.75
2019-02-27T22:54:54.772Z,62.27
2019-02-27T22:57:24.664Z,69.82
2019-02-27T22:59:56.063Z,66.40
2019-02-27T23:02:26.662Z,53.40
2019-02-27T23:04:57.198Z,58.70
2019-02-27T23:07:27.090Z,60.67
2019-02-27T23:09:58.602Z,66.17
2019-02-27T23:12:29.071Z,65.08
2019-02-27T23:14:59.423Z,61.75
2019-02-27T23:17:31.607Z,56.13
2019-02-27T23:20:02.534Z,58.23
2019-02-27T23:22:33.110Z,60.00
2019-02-27T23:25:03.675Z,60.25
2019-02-27T23:27:34.244Z,55.55
2019-02-27T23:30:08.439Z,63.52
2019-02-27T23:32:38.409Z,61.18
2019-02-27T23:35:08.270Z,59.17
2019-02-27T23:37:38.142Z,60.52
2019-02-27T23:40:09.637Z,56.00
2019-02-27T23:42:39.528Z,50.10
2019-02-27T23:45:11.046Z,57.65
2019-02-27T23:47:41.647Z,52.40
2019-02-27T23:50:13.485Z,54.05
2019-02-27T23:52:43.963Z,55.12
2019-02-27T23:55:14.323Z,53.60
2019-02-27T23:57:44.207Z,55.90
